createdAt,value
2018-05-04T00:01:58.391Z,14.40
2018-05-04T00:04:25.836Z,14.30
2018-05-04T00:06:53.263Z,14.20
2018-05-04T00:09:20.724Z,14.30
2018-05-04T00:11:48.158Z,14.30
2018-05-04T00:14:15.626Z,14.30
2018-05-04T00:16:43.047Z,14.30
2018-05-04T00:19:10.499Z,14.20
2018-05-04T00:21:37.959Z,14.10
2018-05-04T00:24:05.408Z,13.90
2018-05-04T00:26:32.862Z,14.10
2018-05-04T00:29:00.291Z,14.10
2018-05-04T00:31:27.757Z,14.10
2018-05-04T00:33:55.209Z,13.90
2018-05-04T00:36:22.665Z,14.00
2018-05-04T00:38:50.136Z,14.00
2018-05-04T00:41:17.600Z,14.00
2018-05-04T00:43:45.024Z,14.00
2018-05-04T00:46:12.475Z,14.10
2018-05-04T00:48:39.909Z,13.90
2018-05-04T00:51:07.368Z,14.00
2018-05-04T00:56:35.328Z,13.80
2018-05-04T00:59:02.764Z,13.90
2018-05-04T01:01:30.204Z,13.70
2018-05-04T01:03:57.652Z,13.70
2018-05-04T01:06:25.124Z,13.80
2018-05-04T01:08:52.561Z,13.80
2018-05-04T01:11:20.008Z,13.70
2018-05-04T01:13:47.459Z,13.70
2018-05-04T01:16:14.899Z,13.70
2018-05-04T01:18:42.332Z,13.60
2018-05-04T01:21:09.765Z,13.60
2018-05-04T01:23:37.196Z,13.60
2018-05-04T01:26:04.637Z,13.60
2018-05-04T01:28:32.070Z,13.50
2018-05-04T01:30:59.508Z,13.40
2018-05-04T01:33:26.937Z,13.40
2018-05-04T01:35:54.411Z,13.40
2018-05-04T01:38:21.843Z,13.30
2018-05-04T01:40:49.293Z,13.40
2018-05-04T01:43:16.724Z,13.30
2018-05-04T01:45:44.171Z,13.30
2018-05-04T01:48:11.608Z,13.30
2018-05-04T01:50:39.072Z,13.20
2018-05-04T01:53:06.511Z,13.10
2018-05-04T01:55:33.949Z,13.10
2018-05-04T01:58:01.392Z,12.90
2018-05-04T02:00:28.834Z,12.90
2018-05-04T02:02:56.271Z,12.80
2018-05-04T02:05:23.728Z,12.80
2018-05-04T02:07:51.196Z,12.70
2018-05-04T02:10:18.708Z,12.70
2018-05-04T02:12:46.146Z,12.60
2018-05-04T02:15:14.366Z,12.50
2018-05-04T02:17:41.812Z,12.50
2018-05-04T02:20:09.251Z,12.50
2018-05-04T02:22:37.460Z,12.50
2018-05-04T02:25:04.912Z,12.50
2018-05-04T02:27:32.372Z,12.40
2018-05-04T02:29:59.835Z,12.50
2018-05-04T02:32:28.040Z,12.50
2018-05-04T02:34:55.478Z,12.40
2018-05-04T02:37:23.693Z,12.40
2018-05-04T02:39:51.136Z,12.40
2018-05-04T02:42:20.292Z,12.30
2018-05-04T02:44:47.736Z,12.30
2018-05-04T02:47:15.202Z,12.30
2018-05-04T02:49:42.657Z,12.20
2018-05-04T02:52:10.187Z,12.20
2018-05-04T02:54:37.612Z,12.20
2018-05-04T02:57:05.840Z,12.10
2018-05-04T02:59:33.280Z,12.10
2018-05-04T03:02:00.738Z,12.10
2018-05-04T03:04:28.205Z,12.10
2018-05-04T03:06:55.643Z,12.10
2018-05-04T03:09:23.852Z,12.00
2018-05-04T03:11:51.288Z,12.00
2018-05-04T03:14:18.720Z,11.90
2018-05-04T03:16:46.196Z,12.00
2018-05-04T03:19:13.638Z,12.00
2018-05-04T03:21:42.778Z,11.80
2018-05-04T03:24:11.020Z,11.80
2018-05-04T03:26:38.473Z,11.80
2018-05-04T03:29:05.923Z,11.70
2018-05-04T03:31:33.352Z,11.80
2018-05-04T03:34:01.596Z,11.70
2018-05-04T03:36:29.063Z,11.70
2018-05-04T03:38:56.515Z,11.80
2018-05-04T03:41:23.967Z,11.70
2018-05-04T03:43:51.416Z,11.60
2018-05-04T03:46:18.865Z,11.60
2018-05-04T03:48:46.313Z,11.50
2018-05-04T03:51:13.753Z,11.50
2018-05-04T03:53:41.231Z,11.50
2018-05-04T03:56:09.436Z,11.50
2018-05-04T03:58:48.888Z,11.40
2018-05-04T04:01:28.299Z,11.50
2018-05-04T04:04:16.767Z,11.50
2018-05-04T04:06:44.194Z,11.30
2018-05-04T04:09:11.780Z,11.40
2018-05-04T04:11:39.240Z,11.40
2018-05-04T04:14:06.700Z,11.40
2018-05-04T04:16:35.546Z,11.40
2018-05-04T04:19:02.993Z,11.40
2018-05-04T04:21:33.585Z,11.30
2018-05-04T04:24:01.040Z,11.20
2018-05-04T04:26:30.426Z,11.10
2018-05-04T04:29:00.476Z,11.20
2018-05-04T04:31:29.884Z,11.20
2018-05-04T04:33:57.344Z,11.20
2018-05-04T04:36:24.952Z,11.20
2018-05-04T04:38:52.440Z,11.30
2018-05-04T04:41:19.857Z,11.20
2018-05-04T04:43:47.309Z,11.30
2018-05-04T04:46:14.768Z,11.30
2018-05-04T04:48:42.236Z,11.20
2018-05-04T04:51:09.692Z,11.10
2018-05-04T04:53:37.181Z,11.20
2018-05-04T04:56:05.559Z,11.20
2018-05-04T04:58:33.000Z,11.20
2018-05-04T05:01:00.475Z,11.20
2018-05-04T05:03:27.912Z,11.20
2018-05-04T05:05:55.381Z,11.20
2018-05-04T05:08:22.824Z,11.30
2018-05-04T05:10:50.275Z,11.20
2018-05-04T05:13:18.509Z,11.30
2018-05-04T05:15:45.958Z,11.30
2018-05-04T05:18:13.422Z,11.30
2018-05-04T05:20:40.896Z,11.20
2018-05-04T05:23:08.333Z,11.30
2018-05-04T05:25:35.795Z,11.40
2018-05-04T05:28:03.255Z,11.40
2018-05-04T05:30:30.723Z,11.40
2018-05-04T05:32:58.206Z,11.30
2018-05-04T05:35:25.700Z,11.30
2018-05-04T05:37:53.160Z,11.30
2018-05-04T05:40:20.625Z,11.30
2018-05-04T05:42:48.081Z,11.40
2018-05-04T05:45:15.543Z,11.50
2018-05-04T05:47:43.004Z,11.40
2018-05-04T05:50:10.467Z,11.50
2018-05-04T05:52:37.930Z,11.60
2018-05-04T05:55:05.393Z,11.70
2018-05-04T05:57:32.855Z,11.70
2018-05-04T06:00:00.303Z,11.70
2018-05-04T06:02:27.754Z,11.70
2018-05-04T06:04:55.217Z,11.80
2018-05-04T06:07:22.684Z,11.80
2018-05-04T06:09:50.125Z,11.80
2018-05-04T06:12:17.580Z,11.90
2018-05-04T06:14:45.016Z,11.80
2018-05-04T06:17:13.248Z,11.90
2018-05-04T06:19:40.687Z,11.90
2018-05-04T06:22:08.137Z,12.00
2018-05-04T06:24:35.585Z,12.00
2018-05-04T06:27:03.812Z,11.90
2018-05-04T06:29:31.270Z,11.90
2018-05-04T06:31:58.713Z,11.90
2018-05-04T06:34:26.157Z,12.00
2018-05-04T06:36:53.618Z,12.00
2018-05-04T06:39:21.057Z,12.00
2018-05-04T06:41:48.515Z,12.00
2018-05-04T06:44:15.948Z,12.00
2018-05-04T06:46:43.423Z,12.00
2018-05-04T06:49:13.096Z,12.10
2018-05-04T06:51:40.559Z,12.10
2018-05-04T06:54:08.033Z,12.00
2018-05-04T06:56:35.484Z,12.00
2018-05-04T06:59:02.958Z,12.00
2018-05-04T07:01:30.410Z,12.10
2018-05-04T07:03:57.869Z,12.20
2018-05-04T07:06:25.327Z,12.30
2018-05-04T07:08:52.787Z,12.30
2018-05-04T07:11:20.245Z,12.30
2018-05-04T07:13:47.689Z,12.40
2018-05-04T07:16:15.899Z,12.50
2018-05-04T07:18:43.370Z,12.50
2018-05-04T07:21:10.804Z,12.50
2018-05-04T07:23:39.045Z,12.80
2018-05-04T07:26:06.506Z,12.80
2018-05-04T07:28:33.964Z,12.90
2018-05-04T07:31:01.397Z,12.90
2018-05-04T07:33:28.876Z,13.00
2018-05-04T07:35:56.362Z,13.00
2018-05-04T07:38:23.799Z,12.90
2018-05-04T07:40:51.263Z,13.00
2018-05-04T07:43:18.758Z,13.00
2018-05-04T07:45:46.195Z,13.00
2018-05-04T07:48:13.672Z,13.00
2018-05-04T07:50:41.120Z,13.00
2018-05-04T07:53:08.565Z,13.20
2018-05-04T07:55:36.023Z,13.10
2018-05-04T07:58:03.482Z,13.20
2018-05-04T08:00:30.937Z,13.30
2018-05-04T08:02:58.500Z,13.20
2018-05-04T08:05:25.831Z,13.20
2018-05-04T08:07:54.036Z,13.30
2018-05-04T08:10:21.509Z,13.30
2018-05-04T08:12:48.948Z,13.40
2018-05-04T08:15:16.401Z,13.50
2018-05-04T08:17:44.615Z,13.60
2018-05-04T08:20:12.085Z,13.60
2018-05-04T08:22:39.515Z,13.70
2018-05-04T08:25:06.968Z,13.90
2018-05-04T08:27:35.173Z,14.00
2018-05-04T08:30:02.641Z,14.00
2018-05-04T08:32:30.095Z,14.10
2018-05-04T08:34:57.540Z,14.10
2018-05-04T08:37:25.002Z,14.20
2018-05-04T08:39:53.255Z,14.20
2018-05-04T08:42:20.653Z,14.20
2018-05-04T08:44:48.139Z,14.30
2018-05-04T08:47:15.576Z,14.20
2018-05-04T08:49:43.038Z,14.30
2018-05-04T08:52:10.497Z,14.40
2018-05-04T08:54:38.692Z,14.40
2018-05-04T08:57:06.221Z,14.40
2018-05-04T08:59:33.621Z,14.30
2018-05-04T09:02:01.084Z,14.40
2018-05-04T09:04:28.547Z,14.50
2018-05-04T09:06:56.009Z,14.60
2018-05-04T09:09:23.461Z,14.60
2018-05-04T09:11:50.914Z,14.60
2018-05-04T09:14:18.360Z,14.70
2018-05-04T09:16:46.573Z,15.00
2018-05-04T09:19:14.032Z,15.00
2018-05-04T09:21:41.480Z,15.20
2018-05-04T09:24:08.944Z,15.20
2018-05-04T09:26:36.399Z,15.40
2018-05-04T09:29:04.599Z,15.60
2018-05-04T09:31:32.055Z,15.60
2018-05-04T09:33:59.511Z,15.70
2018-05-04T09:36:26.976Z,15.80
2018-05-04T09:38:54.437Z,15.80
2018-05-04T09:41:21.885Z,15.90
2018-05-04T09:43:50.120Z,16.10
2018-05-04T09:46:17.560Z,16.10
2018-05-04T09:48:45.020Z,16.10
2018-05-04T09:51:12.464Z,16.20
2018-05-04T09:53:39.916Z,16.40
2018-05-04T09:56:08.229Z,16.60
2018-05-04T09:58:35.609Z,16.60
2018-05-04T10:01:03.056Z,16.50
2018-05-04T10:03:30.529Z,16.50
2018-05-04T10:05:57.979Z,16.60
2018-05-04T10:08:25.432Z,16.70
2018-05-04T10:10:52.884Z,16.70
2018-05-04T10:13:20.335Z,16.80
2018-05-04T10:15:47.777Z,17.00
2018-05-04T10:18:15.235Z,17.20
2018-05-04T10:20:42.778Z,17.10
2018-05-04T10:23:11.000Z,17.20
2018-05-04T10:25:38.438Z,17.20
2018-05-04T10:28:05.895Z,17.20
2018-05-04T10:30:33.360Z,17.10
2018-05-04T10:33:00.821Z,17.30
2018-05-04T10:35:28.286Z,17.20
2018-05-04T10:37:55.731Z,17.20
2018-05-04T10:40:23.183Z,17.40
2018-05-04T10:42:50.693Z,17.50
2018-05-04T10:45:18.165Z,17.50
2018-05-04T10:47:46.420Z,17.70
2018-05-04T10:50:13.902Z,17.70
2018-05-04T10:52:42.116Z,18.00
2018-05-04T10:55:09.556Z,18.00
2018-05-04T10:57:37.012Z,18.10
2018-05-04T11:00:05.239Z,18.10
2018-05-04T11:02:32.683Z,18.10
2018-05-04T11:05:00.141Z,18.30
2018-05-04T11:07:27.608Z,18.30
2018-05-04T11:09:55.060Z,18.40
2018-05-04T11:12:22.555Z,18.50
2018-05-04T11:14:50.040Z,18.60
2018-05-04T11:17:17.502Z,18.50
2018-05-04T11:19:44.966Z,18.60
2018-05-04T11:22:12.413Z,18.70
2018-05-04T11:24:39.890Z,18.60
2018-05-04T11:27:07.331Z,18.70
2018-05-04T11:29:34.784Z,18.70
2018-05-04T11:32:02.258Z,18.70
2018-05-04T11:34:29.903Z,19.00
2018-05-04T11:36:57.364Z,19.00
2018-05-04T11:39:24.930Z,18.90
2018-05-04T11:41:52.388Z,19.20
2018-05-04T11:44:19.838Z,19.30
2018-05-04T11:46:47.298Z,19.40
2018-05-04T11:49:14.781Z,19.40
2018-05-04T11:51:42.210Z,19.50
2018-05-04T11:54:09.676Z,19.50
2018-05-04T11:56:37.173Z,19.60
2018-05-04T11:59:04.630Z,19.60
2018-05-04T12:01:32.072Z,19.70
2018-05-04T12:03:59.520Z,19.80
2018-05-04T12:06:26.987Z,19.80
2018-05-04T12:08:54.438Z,20.00
2018-05-04T12:11:22.657Z,20.40
2018-05-04T12:13:50.105Z,20.40
2018-05-04T12:16:17.641Z,20.30
2018-05-04T12:18:45.027Z,20.10
2018-05-04T12:21:12.477Z,20.30
2018-05-04T12:23:39.957Z,20.50
2018-05-04T12:26:07.418Z,20.30
2018-05-04T12:28:34.864Z,20.40
2018-05-04T12:31:02.344Z,20.40
2018-05-04T12:33:29.810Z,20.60
2018-05-04T12:35:57.268Z,20.80
2018-05-04T12:38:24.768Z,20.80
2018-05-04T12:40:52.946Z,20.70
2018-05-04T12:43:20.420Z,20.60
2018-05-04T12:45:47.849Z,20.80
2018-05-04T12:48:15.375Z,21.00
2018-05-04T12:50:43.600Z,21.30
2018-05-04T12:53:11.050Z,21.30
2018-05-04T12:55:38.495Z,21.50
2018-05-04T12:58:05.967Z,21.40
2018-05-04T13:00:33.428Z,21.40
2018-05-04T13:03:00.896Z,21.30
2018-05-04T13:05:28.353Z,21.00
2018-05-04T13:07:55.798Z,21.30
2018-05-04T13:10:23.276Z,21.40
2018-05-04T13:12:50.740Z,21.50
2018-05-04T13:15:18.202Z,21.50
2018-05-04T13:17:45.677Z,21.50
2018-05-04T13:20:13.124Z,21.40
2018-05-04T13:22:40.596Z,21.50
2018-05-04T13:25:08.049Z,21.50
2018-05-04T13:27:35.536Z,21.50
2018-05-04T13:30:02.997Z,21.60
2018-05-04T13:32:30.453Z,21.60
2018-05-04T13:34:57.928Z,21.70
2018-05-04T13:37:25.376Z,21.90
2018-05-04T13:39:52.839Z,21.80
2018-05-04T13:42:20.290Z,21.80
2018-05-04T13:44:47.748Z,21.80
2018-05-04T13:47:15.193Z,21.80
2018-05-04T13:49:42.648Z,21.70
2018-05-04T13:52:10.853Z,21.60
2018-05-04T13:54:38.315Z,21.60
2018-05-04T13:57:05.785Z,21.70
2018-05-04T13:59:33.235Z,21.90
2018-05-04T14:02:00.708Z,21.70
2018-05-04T14:04:28.167Z,21.80
2018-05-04T14:06:55.633Z,21.70
2018-05-04T14:09:23.870Z,21.80
2018-05-04T14:11:51.327Z,21.80
2018-05-04T14:14:18.788Z,21.80
2018-05-04T14:16:46.235Z,21.90
2018-05-04T14:19:13.687Z,21.80
2018-05-04T14:21:49.516Z,21.80
2018-05-04T14:24:16.964Z,21.80
2018-05-04T14:26:44.413Z,21.80
2018-05-04T14:29:12.644Z,21.70
2018-05-04T14:31:40.106Z,21.70
2018-05-04T14:34:07.572Z,21.80
2018-05-04T14:36:35.017Z,21.60
2018-05-04T14:39:02.470Z,21.70
2018-05-04T14:41:31.034Z,21.70
2018-05-04T14:44:01.417Z,21.60
2018-05-04T14:46:30.375Z,21.60
2018-05-04T14:48:57.884Z,21.60
2018-05-04T14:51:25.413Z,21.70
2018-05-04T14:53:52.799Z,21.50
2018-05-04T14:56:20.240Z,21.60
2018-05-04T14:58:47.700Z,21.60
2018-05-04T15:01:15.158Z,21.60
2018-05-04T15:03:42.596Z,21.60
2018-05-04T15:06:10.065Z,21.50
2018-05-04T15:08:37.514Z,21.50
2018-05-04T15:11:05.859Z,21.30
2018-05-04T15:13:33.302Z,21.30
2018-05-04T15:16:04.825Z,21.20
2018-05-04T15:18:39.742Z,21.40
2018-05-04T15:21:09.520Z,21.40
2018-05-04T15:23:36.976Z,21.40
2018-05-04T15:26:04.664Z,21.50
2018-05-04T15:28:32.103Z,21.40
2018-05-04T15:31:00.329Z,21.50
2018-05-04T15:33:28.549Z,21.50
2018-05-04T15:35:56.013Z,21.40
2018-05-04T15:38:23.471Z,21.40
2018-05-04T15:40:56.999Z,21.40
2018-05-04T15:43:24.557Z,21.30
2018-05-04T15:45:52.029Z,21.30
2018-05-04T15:48:25.084Z,21.40
2018-05-04T15:50:58.172Z,21.50
2018-05-04T15:53:25.645Z,21.60
2018-05-04T15:55:53.107Z,21.60
2018-05-04T15:58:20.556Z,21.60
2018-05-04T16:00:48.022Z,21.60
2018-05-04T16:03:15.459Z,21.60
2018-05-04T16:05:43.701Z,21.80
2018-05-04T16:08:11.155Z,21.80
2018-05-04T16:10:38.621Z,21.70
2018-05-04T16:13:06.084Z,21.70
2018-05-04T16:15:33.535Z,21.70
2018-05-04T16:18:01.008Z,21.60
2018-05-04T16:20:28.461Z,21.50
2018-05-04T16:22:56.001Z,21.50
2018-05-04T16:25:23.459Z,21.60
2018-05-04T16:27:50.920Z,21.30
2018-05-04T16:30:18.392Z,21.30
2018-05-04T16:32:45.901Z,21.40
2018-05-04T16:35:13.337Z,21.40
2018-05-04T16:37:40.787Z,21.30
2018-05-04T16:40:08.248Z,21.30
2018-05-04T16:42:35.713Z,21.30
2018-05-04T16:45:03.240Z,21.20
2018-05-04T16:47:30.633Z,21.20
2018-05-04T16:49:58.071Z,21.10
2018-05-04T16:52:25.530Z,21.10
2018-05-04T16:54:53.738Z,21.00
2018-05-04T16:57:21.193Z,21.00
2018-05-04T16:59:48.688Z,21.00
2018-05-04T17:02:16.149Z,21.00
2018-05-04T17:04:44.368Z,20.90
2018-05-04T17:07:12.625Z,21.00
2018-05-04T17:09:40.107Z,21.00
2018-05-04T17:12:08.358Z,20.80
2018-05-04T17:14:35.818Z,20.90
2018-05-04T17:17:03.278Z,20.80
2018-05-04T17:19:30.723Z,20.80
2018-05-04T17:21:58.192Z,20.70
2018-05-04T17:24:25.659Z,20.70
2018-05-04T17:26:53.121Z,20.70
2018-05-04T17:29:20.578Z,20.70
2018-05-04T17:31:48.049Z,20.70
2018-05-04T17:34:15.489Z,20.70
2018-05-04T17:36:43.720Z,20.60
2018-05-04T17:39:11.170Z,20.60
2018-05-04T17:41:38.630Z,20.60
2018-05-04T17:44:06.097Z,20.60
2018-05-04T17:46:33.549Z,20.50
2018-05-04T17:49:02.527Z,20.40
2018-05-04T17:51:29.977Z,20.40
2018-05-04T17:53:57.443Z,20.40
2018-05-04T17:56:24.887Z,20.40
2018-05-04T17:58:52.345Z,20.30
2018-05-04T18:01:19.795Z,20.30
2018-05-04T18:03:48.024Z,20.20
2018-05-04T18:06:15.524Z,20.20
2018-05-04T18:08:42.988Z,20.20
2018-05-04T18:11:10.465Z,20.20
2018-05-04T18:13:37.992Z,20.20
2018-05-04T18:16:05.460Z,20.10
2018-05-04T18:18:32.926Z,20.10
2018-05-04T18:21:00.365Z,20.10
2018-05-04T18:23:27.821Z,20.00
2018-05-04T18:25:55.275Z,20.00
2018-05-04T18:28:22.727Z,20.00
2018-05-04T18:30:51.983Z,20.00
2018-05-04T18:33:19.447Z,20.00
2018-05-04T18:35:46.900Z,20.00
2018-05-04T18:38:14.373Z,19.90
2018-05-04T18:40:45.250Z,19.90
2018-05-04T18:43:12.720Z,19.80
2018-05-04T18:45:42.596Z,19.80
2018-05-04T18:48:10.890Z,19.70
2018-05-04T18:50:39.443Z,19.70
2018-05-04T18:53:06.899Z,19.70
2018-05-04T18:55:37.407Z,19.70
2018-05-04T18:58:04.858Z,19.80
2018-05-04T19:00:32.570Z,19.70
2018-05-04T19:03:05.969Z,19.70
2018-05-04T19:05:37.001Z,19.70
2018-05-04T19:08:04.432Z,19.60
2018-05-04T19:10:32.016Z,19.50
2018-05-04T19:12:59.488Z,19.50
2018-05-04T19:15:26.935Z,19.50
2018-05-04T19:17:54.377Z,19.40
2018-05-04T19:20:21.831Z,19.30
2018-05-04T19:22:49.287Z,19.30
2018-05-04T19:25:16.761Z,19.30
2018-05-04T19:27:44.204Z,19.10
2018-05-04T19:30:12.437Z,18.90
2018-05-04T19:32:39.893Z,18.90
2018-05-04T19:35:07.338Z,18.90
2018-05-04T19:37:34.777Z,18.80
2018-05-04T19:40:02.976Z,18.70
2018-05-04T19:42:30.430Z,18.70
2018-05-04T19:44:57.859Z,18.60
2018-05-04T19:47:25.313Z,18.50
2018-05-04T19:49:52.778Z,18.50
2018-05-04T19:52:20.220Z,18.50
2018-05-04T19:54:47.668Z,18.40
2018-05-04T19:57:15.140Z,18.30
2018-05-04T19:59:42.581Z,18.20
2018-05-04T20:02:10.022Z,18.10
2018-05-04T20:04:38.249Z,18.00
2018-05-04T20:07:05.749Z,18.00
2018-05-04T20:09:33.137Z,18.00
2018-05-04T20:12:00.602Z,18.00
2018-05-04T20:14:28.058Z,18.00
2018-05-04T20:16:56.405Z,17.90
2018-05-04T20:19:25.392Z,17.80
2018-05-04T20:21:52.824Z,17.80
2018-05-04T20:24:20.277Z,17.70
2018-05-04T20:26:47.729Z,17.70
2018-05-04T20:29:15.170Z,17.70
2018-05-04T20:31:43.381Z,17.60
2018-05-04T20:34:10.838Z,17.50
2018-05-04T20:36:38.285Z,17.50
2018-05-04T20:39:05.732Z,17.50
2018-05-04T20:41:33.961Z,17.40
2018-05-04T20:44:01.494Z,17.40
2018-05-04T20:46:28.871Z,17.40
2018-05-04T20:48:56.325Z,17.40
2018-05-04T20:51:24.121Z,17.40
2018-05-04T20:53:51.559Z,17.30
2018-05-04T20:56:19.006Z,17.30
2018-05-04T20:58:46.445Z,17.30
2018-05-04T21:01:13.895Z,17.20
2018-05-04T21:03:41.327Z,17.20
2018-05-04T21:06:08.772Z,17.20
2018-05-04T21:08:36.205Z,17.20
2018-05-04T21:11:04.429Z,17.10
2018-05-04T21:13:31.861Z,17.10
2018-05-04T21:15:59.303Z,17.20
2018-05-04T21:18:27.514Z,17.00
2018-05-04T21:20:54.952Z,17.00
2018-05-04T21:23:23.159Z,17.00
2018-05-04T21:25:50.589Z,17.00
2018-05-04T21:28:18.818Z,16.90
2018-05-04T21:30:46.264Z,16.90
2018-05-04T21:33:13.723Z,16.80
2018-05-04T21:35:41.160Z,16.80
2018-05-04T21:38:09.383Z,16.80
2018-05-04T21:40:36.828Z,16.80
2018-05-04T21:43:04.284Z,16.80
2018-05-04T21:45:31.720Z,16.70
2018-05-04T21:47:59.962Z,16.70
2018-05-04T21:50:27.424Z,16.70
2018-05-04T21:52:54.885Z,16.60
2018-05-04T21:55:22.466Z,16.70
2018-05-04T21:57:49.947Z,16.60
2018-05-04T22:00:18.151Z,16.50
2018-05-04T22:02:45.595Z,16.50
2018-05-04T22:05:13.812Z,16.40
2018-05-04T22:07:41.261Z,16.40
2018-05-04T22:10:08.725Z,16.30
2018-05-04T22:12:36.185Z,16.30
2018-05-04T22:15:04.419Z,16.30
2018-05-04T22:17:31.855Z,16.30
2018-05-04T22:19:59.313Z,16.30
2018-05-04T22:22:26.780Z,16.30
2018-05-04T22:24:54.219Z,16.20
2018-05-04T22:27:21.674Z,16.20
2018-05-04T22:29:49.138Z,16.20
2018-05-04T22:32:16.579Z,16.20
2018-05-04T22:34:44.797Z,16.20
2018-05-04T22:37:12.252Z,16.10
2018-05-04T22:39:39.724Z,16.20
2018-05-04T22:42:07.166Z,16.20
2018-05-04T22:44:34.629Z,16.10
2018-05-04T22:47:02.976Z,16.10
2018-05-04T22:49:31.213Z,16.00
2018-05-04T22:51:58.677Z,16.00
2018-05-04T22:54:26.128Z,16.00
2018-05-04T22:56:53.586Z,16.00
2018-05-04T22:59:21.056Z,16.00
2018-05-04T23:01:48.511Z,15.90
2018-05-04T23:04:15.971Z,16.00
2018-05-04T23:06:43.443Z,16.00
2018-05-04T23:09:10.897Z,15.80
2018-05-04T23:11:38.356Z,15.80
2018-05-04T23:14:05.803Z,15.90
2018-05-04T23:16:33.241Z,15.70
2018-05-04T23:19:01.467Z,15.70
2018-05-04T23:21:28.919Z,15.70
2018-05-04T23:23:56.383Z,15.60
2018-05-04T23:26:23.832Z,15.70
2018-05-04T23:28:51.302Z,15.60
2018-05-04T23:31:18.741Z,15.60
2018-05-04T23:33:46.961Z,15.60
2018-05-04T23:36:14.427Z,15.60
2018-05-04T23:38:41.871Z,15.50
2018-05-04T23:41:09.306Z,15.50
2018-05-04T23:43:36.752Z,15.40
